Latest Coastal Weather Observations for Portland Harbour

IDV60701

Issued at 9:41 am EDT Wednesday 18 October 2017 (issued every 10 minutes, with the page automatically refreshed every 10 minutes)

About coastal observations | Map of coastal stations | Coastal observations for VIC | Marine services | Other Formats
Station Details ID: 090192 Name: PORTLAND NTC AWS Lat: -38.34 Lon: 141.61 Height: 0.0 m
Data from the previous 72 hours. | See also: Recent months for locations in Victoria
Date/Time
EDT
Temp
°C
Wind Pressure Rain since
9am
mm
Weather Cloud Vis
km
Sea
Height
m
Swell
Dir  Spd
kts
Gust
kts
hPa Trend Height
m
Period
s
Dir
18/09:30am 20.9 N 11 13 1017.3 - - - - - - - - -
18/09:00am 20.3 N 11 14 1017.3 - - - - - - - - -
18/08:30am 20.0 N 9 12 1017.3 - - - - - - - - -
18/08:00am 19.7 N 11 13 1017.3 - - - - - - - - -
18/07:30am 19.4 N 9 11 1017.1 - - - - - - - - -
18/07:00am 19.6 N 11 12 1016.9 - - - - - - - - -
18/06:30am 20.6 N 15 18 1016.5 - - - - - - - - -
18/06:00am 20.0 N 9 12 1016.3 - - - - - - - - -
18/05:30am 19.7 NNW 10 12 1016.2 - - - - - - - - -
18/05:00am 20.8 N 17 21 1016.0 - - - - - - - - -
18/04:30am 20.3 N 14 17 1016.1 - - - - - - - - -
18/04:00am 20.3 N 14 17 1016.1 - - - - - - - - -
18/03:30am 19.7 N 12 16 1016.4 - - - - - - - - -
18/03:00am 19.7 N 12 14 1016.5 - - - - - - - - -
18/02:30am 19.4 N 8 10 1016.8 - - - - - - - - -
18/02:00am 20.2 N 12 14 1016.9 - - - - - - - - -
18/01:30am 20.2 NNE 7 11 1017.2 - - - - - - - - -
18/01:00am 20.9 NE 2 4 1017.2 - - - - - - - - -
18/12:30am 19.1 ESE 2 4 1017.3 - - - - - - - - -
18/12:00am 19.6 NE 1 7 1017.5 - - - - - - - - -
 
Date/Time
EDT
Temp
°C
Wind Pressure Rain since
9am
mm
Weather Cloud Vis
km
Sea
Height
m
Swell
Dir  Spd
kts
Gust
kts
hPa Trend Height
m
Period
s
Dir
17/11:30pm 18.9 ESE 5 7 1017.7 - - - - - - - - -
17/11:00pm 19.6 E 3 4 1017.8 - - - - - - - - -
17/10:30pm 19.7 NE 6 9 1017.9 - - - - - - - - -
17/10:00pm 20.0 ENE 2 5 1017.9 - - - - - - - - -
17/09:30pm 20.9 ENE 2 4 1017.8 - - - - - - - - -
17/09:00pm 20.1 CALM 0 3 1017.8 - - - - - - - - -
17/08:30pm 21.2 E 7 11 1017.8 - - - - - - - - -
17/08:00pm 22.4 ESE 7 10 1017.7 - - - - - - - - -
17/07:30pm 22.8 ESE 6 7 1017.4 - - - - - - - - -
17/07:00pm 22.7 E 8 9 1017.5 - - - - - - - - -
17/06:30pm 20.9 NE 9 10 1017.4 - - - - - - - - -
17/06:00pm 22.6 NNE 10 11 1017.2 - - - - - - - - -
17/05:30pm 23.0 NNE 10 12 1017.1 - - - - - - - - -
17/05:00pm 24.4 N 14 18 1017.0 - - - - - - - - -
17/04:30pm 24.7 N 13 15 1017.2 - - - - - - - - -
17/04:00pm 26.0 N 15 19 1017.3 - - - - - - - - -
17/03:30pm 24.7 N 15 17 1017.5 - - - - - - - - -
17/03:00pm 25.1 N 15 19 1017.7 - - - - - - - - -
17/02:30pm 25.0 N 16 19 1017.9 - - - - - - - - -
17/02:00pm 24.8 N 16 20 1018.1 - - - - - - - - -
17/01:30pm 24.8 N 15 17 1018.2 - - - - - - - - -
17/01:00pm 24.7 N 16 18 1018.4 - - - - - - - - -
17/12:30pm 25.1 N 18 21 1018.7 - - - - - - - - -
17/12:00pm 23.7 N 16 21 1018.8 - - - - - - - - -
17/11:30am 23.4 N 16 22 1019.0 - - - - - - - - -
17/11:00am 22.7 N 16 19 1019.2 - - - - - - - - -
17/10:30am 21.8 N 16 23 1019.3 - - - - - - - - -
17/10:00am 21.7 N 17 21 1019.3 - - - - - - - - -
17/09:30am 21.1 NNW 17 20 1019.1 - - - - - - - - -
17/09:00am 20.5 N 15 17 1019.0 - - - - - - - - -
17/08:30am 20.0 N 10 15 1019.1 - - - - - - - - -
17/08:00am 19.3 N 5 7 1019.0 - - - - - - - - -
17/07:30am 18.6 E 4 6 1018.9 - - - - - - - - -
17/07:00am 16.2 SSE 2 4 1018.7 - - - - - - - - -
17/06:30am 14.2 SSW 2 3 1018.4 - - - - - - - - -
17/06:00am 16.7 ENE 2 4 1018.2 - - - - - - - - -
17/05:30am 14.7 ESE 1 3 1018.1 - - - - - - - - -
17/05:00am 13.8 CALM 0 1 1018.1 - - - - - - - - -
17/04:30am 13.2 SW 1 2 1018.1 - - - - - - - - -
17/04:00am 13.3 SW 2 3 1018.3 - - - - - - - - -
17/03:30am 13.7 SW 2 3 1018.5 - - - - - - - - -
17/03:00am 13.8 WSW 2 3 1018.6 - - - - - - - - -
17/02:30am 14.1 SW 2 3 1018.7 - - - - - - - - -
17/02:00am 14.8 SW 1 2 1019.3 - - - - - - - - -
17/01:30am 15.0 SSW 1 2 1019.7 - - - - - - - - -
17/01:00am 15.2 SW 2 2 1020.1 - - - - - - - - -
17/12:30am 15.7 S 2 2 1020.2 - - - - - - - - -
17/12:00am 16.1 SE 2 2 1020.4 - - - - - - - - -
 
Date/Time
EDT
Temp
°C
Wind Pressure Rain since
9am
mm
Weather Cloud Vis
km
Sea
Height
m
Swell
Dir  Spd
kts
Gust
kts
hPa Trend Height
m
Period
s
Dir
16/11:30pm 16.6 S 1 1 1020.7 - - - - - - - - -
16/11:00pm 16.9 SE 1 2 1020.8 - - - - - - - - -
16/10:30pm 16.9 ESE 3 4 1021.0 - - - - - - - - -
16/10:00pm 16.8 ESE 5 7 1021.2 - - - - - - - - -
16/09:30pm 16.9 ESE 6 8 1021.2 - - - - - - - - -
16/09:00pm 16.8 ESE 8 9 1021.0 - - - - - - - - -
16/08:30pm 16.9 ESE 7 9 1020.8 - - - - - - - - -
16/08:00pm 16.6 ESE 6 8 1020.6 - - - - - - - - -
16/07:30pm 16.6 ESE 4 6 1020.5 - - - - - - - - -
16/07:00pm 16.1 ENE 3 4 1020.5 - - - - - - - - -
16/06:30pm 16.4 ESE 5 6 1020.4 - - - - - - - - -
16/06:00pm 16.6 ESE 4 5 1020.5 - - - - - - - - -
16/05:30pm 16.6 ESE 4 6 1020.6 - - - - - - - - -
16/05:00pm 16.6 ESE 7 9 1020.5 - - - - - - - - -
16/04:30pm 16.8 SE 7 10 1020.7 - - - - - - - - -
16/04:00pm 16.6 ESE 7 10 1020.9 - - - - - - - - -
16/03:30pm 16.8 ESE 7 9 1021.0 - - - - - - - - -
16/03:00pm 16.3 ESE 7 9 1021.4 - - - - - - - - -
16/02:30pm 16.3 ESE 7 8 1021.7 - - - - - - - - -
16/02:00pm 15.9 E 6 8 1021.8 - - - - - - - - -
16/01:30pm 15.3 E 5 7 1022.1 - - - - - - - - -
16/01:00pm 14.7 ENE 6 7 1022.3 - - - - - - - - -
16/12:30pm 14.2 ENE 6 7 1022.6 - - - - - - - - -
16/12:00pm 13.5 E 6 8 1023.0 - - - - - - - - -
16/11:30am 13.0 E 5 7 1023.4 - - - - - - - - -
16/11:00am 12.7 ENE 4 6 1023.9 - - - - - - - - -
16/10:30am 12.3 E 4 6 1024.0 - - - - - - - - -
16/10:00am 11.7 ENE 5 7 1023.9 - - - - - - - - -
16/09:30am 11.3 ENE 6 7 1023.9 - - - - - - - - -
16/09:00am 10.9 NE 8 9 1023.7 - - - - - - - - -
16/08:30am 10.8 ENE 9 11 1023.8 - - - - - - - - -
16/08:00am 11.1 ENE 8 11 1023.7 - - - - - - - - -
16/07:30am 10.8 E 9 12 1023.6 - - - - - - - - -
16/07:00am 11.8 ENE 11 12 1023.2 - - - - - - - - -
16/06:30am 12.2 E 11 13 1022.9 - - - - - - - - -
16/06:00am 12.4 E 10 12 1022.7 - - - - - - - - -
16/05:30am 12.6 ENE 8 10 1022.6 - - - - - - - - -
16/05:00am 12.5 ENE 9 10 1022.7 - - - - - - - - -
16/04:30am 13.0 ENE 10 12 1022.8 - - - - - - - - -
16/04:00am 13.3 ENE 10 12 1022.9 - - - - - - - - -
16/03:30am 13.6 ENE 12 13 1023.1 - - - - - - - - -
16/03:00am 13.7 E 10 12 1023.5 - - - - - - - - -
16/02:30am 13.4 ENE 11 14 1023.7 - - - - - - - - -
16/02:00am 12.9 E 10 13 1024.1 - - - - - - - - -
16/01:30am 12.9 E 11 13 1024.3 - - - - - - - - -
16/01:00am 12.7 E 11 15 1024.5 - - - - - - - - -
16/12:30am 12.8 E 11 14 1024.8 - - - - - - - - -
16/12:00am 12.9 E 10 14 1024.9 - - - - - - - - -
 
Date/Time
EDT
Temp
°C
Wind Pressure Rain since
9am
mm
Weather Cloud Vis
km
Sea
Height
m
Swell
Dir  Spd
kts
Gust
kts
hPa Trend Height
m
Period
s
Dir
15/11:30pm 12.9 E 12 16 1024.9 - - - - - - - - -
15/11:00pm 12.9 E 11 15 1025.0 - - - - - - - - -
15/10:30pm 13.0 E 11 14 1025.0 - - - - - - - - -
15/10:00pm 12.9 E 10 13 1025.0 - - - - - - - - -
15/09:30pm 13.0 ESE 11 16 1024.8 - - - - - - - - -
15/09:00pm 13.0 ESE 11 14 1024.8 - - - - - - - - -
15/08:30pm 13.2 E 11 15 1024.5 - - - - - - - - -
15/08:00pm 13.4 ESE 10 15 1024.6 - - - - - - - - -
15/07:30pm 13.3 E 9 14 1024.5 - - - - - - - - -
15/07:00pm 13.3 ESE 10 13 1024.5 - - - - - - - - -
15/06:30pm 13.5 ESE 10 13 1024.4 - - - - - - - - -
15/06:00pm 13.6 SE 10 13 1024.5 - - - - - - - - -
15/05:30pm 13.5 SE 10 13 1024.5 - - - - - - - - -
15/05:00pm 13.3 SE 10 13 1024.5 - - - - - - - - -
15/04:30pm 13.3 SE 11 14 1024.5 - - - - - - - - -
15/04:00pm 13.4 ESE 11 13 1024.7 - - - - - - - - -
15/03:30pm 13.7 ESE 10 13 1025.0 - - - - - - - - -
15/03:00pm 13.5 SE 11 13 1025.1 - - - - - - - - -
15/02:30pm 13.3 SE 11 13 1025.2 - - - - - - - - -
15/02:00pm 13.4 ESE 11 13 1025.2 - - - - - - - - -
15/01:30pm 13.5 SE 12 15 1025.3 - - - - - - - - -
15/01:00pm 13.5 SE 11 13 1025.5 - - - - - - - - -
15/12:30pm 13.2 SE 9 11 1025.7 - - - - - - - - -
15/12:00pm 13.1 SE 7 10 1025.9 - - - - - - - - -
15/11:30am 12.9 ESE 6 9 1026.1 - - - - - - - - -
15/11:00am 12.6 ESE 6 9 1026.2 - - - - - - - - -
15/10:30am 13.0 E 3 6 1026.2 - - - - - - - - -
15/10:00am 12.6 ESE 4 5 1026.0 - - - - - - - - -

Other Formats:

Comma delimited format used in spreadsheet applications
http://www.bom.gov.au/fwo/IDV60701/IDV60701.95826.axf

JavaScript Object Notation format (JSON) in row-major order
http://www.bom.gov.au/fwo/IDV60701/IDV60701.95826.json